Time;durP1;ratioP1;P1;durP2;ratioP2;P2;SDS_P1;SDS_P2;PMS_P1;PMS_P2;Temp;Humidity;BMP_temperature;BMP_pressure;BME280_temperature;BME280_humidity;BME280_pressure;Samples;Min_cycle;Max_cycle;Signal;HPM_P1;HPM_P2
2022/10/30 00:01:30;;;;;;;27.90;24.70;;;;;;;10.82;100.00;99428.35;106089;1288;65016;-75
2022/10/30 00:03:56;;;;;;;39.80;36.00;;;;;;;10.77;100.00;99426.85;106335;1285;58948;-75
2022/10/30 00:06:23;;;;;;;37.50;33.50;;;;;;;10.72;100.00;99427.33;106319;1286;58779;-75
2022/10/30 00:08:51;;;;;;;37.80;34.00;;;;;;;10.67;100.00;99428.83;106321;1282;66971;-74
2022/10/30 00:11:18;;;;;;;37.80;33.80;;;;;;;10.63;100.00;99432.46;106345;1278;61303;-75
2022/10/30 00:13:44;;;;;;;39.40;35.30;;;;;;;10.60;100.00;99432.67;106353;1278;62506;-75
2022/10/30 00:16:11;;;;;;;40.70;36.30;;;;;;;10.57;100.00;99433.21;106350;1285;58969;-75
2022/10/30 00:18:40;;;;;;;38.40;34.10;;;;;;;10.54;100.00;99437.98;106315;1285;58819;-75
2022/10/30 00:21:14;;;;;;;42.40;37.90;;;;;;;10.52;100.00;99443.77;106057;1284;67003;-75
2022/10/30 00:23:51;;;;;;;39.50;34.00;;;;;;;10.50;100.00;99454.23;106322;1285;60744;-75
2022/10/30 00:26:20;;;;;;;35.20;31.00;;;;;;;10.48;100.00;99464.45;106334;1278;64060;-75
2022/10/30 00:28:51;;;;;;;37.00;29.50;;;;;;;10.46;100.00;99471.46;106319;1278;59024;-75
2022/10/30 00:31:18;;;;;;;31.60;28.20;;;;;;;10.46;100.00;99477.52;106342;1278;58929;-75
2022/10/30 00:33:52;;;;;;;33.00;27.30;;;;;;;10.46;100.00;99480.58;106325;1285;67008;-75
2022/10/30 00:36:20;;;;;;;31.20;27.10;;;;;;;10.46;100.00;99475.63;106346;1285;60080;-75
2022/10/30 00:38:48;;;;;;;33.70;28.90;;;;;;;10.45;100.00;99461.05;106352;1285;65009;-75
2022/10/30 00:41:17;;;;;;;33.70;30.00;;;;;;;10.46;100.00;99458.21;106307;1285;58766;-75
2022/10/30 00:43:44;;;;;;;32.30;28.30;;;;;;;10.44;100.00;99460.59;106117;1288;59694;-75
2022/10/30 00:46:23;;;;;;;34.10;30.10;;;;;;;10.44;100.00;99461.65;106313;1285;66047;-74
2022/10/30 00:48:55;;;;;;;32.80;28.80;;;;;;;10.43;100.00;99465.31;106350;1285;60960;-74
2022/10/30 00:51:22;;;;;;;32.50;29.00;;;;;;;10.39;100.00;99462.68;106309;1285;65320;-74
2022/10/30 00:53:50;;;;;;;33.00;28.80;;;;;;;10.35;100.00;99468.80;106309;1286;58935;-76
2022/10/30 00:56:20;;;;;;;32.30;28.20;;;;;;;10.30;100.00;99470.66;106306;1284;58889;-75
2022/10/30 00:58:51;;;;;;;30.40;27.20;;;;;;;10.26;100.00;99471.56;106332;1285;67019;-76
2022/10/30 01:01:22;;;;;;;32.00;27.30;;;;;;;10.22;100.00;99472.84;106322;1284;61215;-76
2022/10/30 01:03:54;;;;;;;31.40;28.00;;;;;;;10.20;100.00;99474.05;106093;1279;62754;-76
2022/10/30 01:06:21;;;;;;;30.20;27.00;;;;;;;10.18;100.00;99474.91;106309;1284;58979;-75
2022/10/30 01:08:50;;;;;;;28.70;25.90;;;;;;;10.13;100.00;99471.79;106317;1286;58894;-74
2022/10/30 01:11:17;;;;;;;33.10;29.70;;;;;;;10.07;100.00;99473.19;106305;1284;67121;-75
2022/10/30 01:13:48;;;;;;;30.20;27.20;;;;;;;10.02;100.00;99465.51;106334;1284;61043;-75
2022/10/30 01:16:36;;;;;;;29.90;26.80;;;;;;;9.96;100.00;99457.67;106132;1285;65229;-75
2022/10/30 01:19:29;;;;;;;30.80;27.60;;;;;;;9.88;100.00;99450.86;106321;1285;59066;-75
2022/10/30 01:22:20;;;;;;;28.60;25.50;;;;;;;9.79;100.00;99444.06;106341;1280;58957;-75
2022/10/30 01:25:26;;;;;;;26.90;23.80;;;;;;;9.74;100.00;99433.71;106335;1285;67073;-75
2022/10/30 01:28:07;;;;;;;28.90;25.80;;;;;;;9.72;100.00;99436.85;106342;1278;60995;-75
2022/10/30 01:30:49;;;;;;;30.30;27.10;;;;;;;9.72;100.00;99440.41;106332;1285;64792;-75
2022/10/30 01:33:34;;;;;;;47.90;43.10;;;;;;;9.71;100.00;99441.71;106292;1286;58964;-75
2022/10/30 01:36:13;;;;;;;46.40;41.60;;;;;;;9.69;100.00;99447.31;106355;1284;58969;-75
2022/10/30 01:39:00;;;;;;;42.90;38.60;;;;;;;9.68;100.00;99448.61;106317;1285;67045;-74
2022/10/30 01:41:27;;;;;;;44.20;39.40;;;;;;;9.67;100.00;99447.25;106348;1285;59715;-75
2022/10/30 01:44:02;;;;;;;41.50;37.10;;;;;;;9.66;100.00;99448.37;106341;1285;64011;-75
2022/10/30 01:47:01;;;;;;;40.80;36.00;;;;;;;9.65;100.00;99440.63;106317;1284;58934;-75
2022/10/30 01:49:34;;;;;;;39.30;35.10;;;;;;;9.62;100.00;99430.50;106303;1285;58755;-75
2022/10/30 01:52:11;;;;;;;41.20;36.20;;;;;;;9.61;100.00;99436.42;106318;1285;67023;-75
2022/10/30 01:54:44;;;;;;;38.80;34.60;;;;;;;9.59;100.00;99439.52;106304;1285;60960;-75
2022/10/30 01:57:13;;;;;;;40.80;36.30;;;;;;;9.58;100.00;99436.73;106089;1287;62467;-75
2022/10/30 01:59:46;;;;;;;39.90;35.70;;;;;;;9.58;100.00;99434.61;106320;1276;59069;-75
2022/10/30 02:02:13;;;;;;;37.90;33.20;;;;;;;9.57;100.00;99440.13;106113;1281;58973;-75
2022/10/30 02:04:40;;;;;;;42.10;36.10;;;;;;;9.58;100.00;99442.44;106332;1278;66252;-75
2022/10/30 02:07:06;;;;;;;40.60;36.30;;;;;;;9.58;100.00;99445.41;106351;1285;61265;-74
2022/10/30 02:09:34;;;;;;;43.00;37.80;;;;;;;9.58;100.00;99436.94;106328;1286;64996;-75
2022/10/30 02:12:02;;;;;;;46.00;41.30;;;;;;;9.55;100.00;99431.41;106321;1285;58903;-75
2022/10/30 02:14:32;;;;;;;47.30;42.20;;;;;;;9.52;100.00;99437.44;106325;1278;59027;-75
2022/10/30 02:17:03;;;;;;;56.30;50.30;;;;;;;9.50;100.00;99440.05;106334;1285;74947;-75
2022/10/30 02:19:29;;;;;;;58.50;51.10;;;;;;;9.46;100.00;99446.98;106345;1285;61033;-74
2022/10/30 02:21:56;;;;;;;51.00;44.20;;;;;;;9.43;100.00;99446.59;106345;1285;65113;-75
2022/10/30 02:24:23;;;;;;;52.00;43.60;;;;;;;9.42;100.00;99451.66;106327;1285;58928;-76
2022/10/30 02:26:49;;;;;;;44.10;39.30;;;;;;;9.40;100.00;99458.48;106349;1292;58699;-75
2022/10/30 02:29:19;;;;;;;44.40;39.60;;;;;;;9.39;100.00;99455.54;106118;1288;66081;-75
2022/10/30 02:31:46;;;;;;;50.20;43.00;;;;;;;9.38;100.00;99448.70;106351;1278;61004;-74
2022/10/30 02:34:14;;;;;;;46.80;39.60;;;;;;;9.36;100.00;99443.30;106298;1285;63752;-74
2022/10/30 02:36:40;;;;;;;47.40;41.50;;;;;;;9.33;100.00;99445.77;106343;1278;58873;-74
2022/10/30 02:39:07;;;;;;;48.60;41.00;;;;;;;9.29;100.00;99444.74;106326;1285;58928;-74
2022/10/30 02:41:34;;;;;;;55.40;48.20;;;;;;;9.25;100.00;99447.98;106091;1289;75589;-74
2022/10/30 02:44:01;;;;;;;61.40;54.70;;;;;;;9.21;100.00;99447.45;106327;1284;59680;-74
2022/10/30 02:46:27;;;;;;;67.70;56.40;;;;;;;9.20;100.00;99448.79;106322;1277;65019;-75
2022/10/30 02:48:54;;;;;;;59.90;53.10;;;;;;;9.18;100.00;99451.16;106339;1278;58916;-74
2022/10/30 02:51:21;;;;;;;56.10;48.60;;;;;;;9.18;100.00;99448.34;106329;1285;58891;-75
2022/10/30 02:53:47;;;;;;;56.30;48.10;;;;;;;9.16;100.00;99447.90;106102;1281;66063;-76
2022/10/30 02:56:14;;;;;;;51.70;45.70;;;;;;;9.14;100.00;99445.35;106335;1285;60969;-75
2022/10/30 02:58:41;;;;;;;54.80;47.50;;;;;;;9.14;100.00;99440.91;106347;1286;65028;-75
2022/10/30 03:01:11;;;;;;;53.80;45.00;;;;;;;9.13;100.00;99441.53;106091;1288;59024;-75
2022/10/30 03:03:38;;;;;;;51.00;45.60;;;;;;;9.11;100.00;99436.69;106369;1292;59059;-74
2022/10/30 03:06:08;;;;;;;50.60;44.80;;;;;;;9.09;100.00;99431.82;106010;1291;66985;-74
2022/10/30 03:08:35;;;;;;;46.50;40.60;;;;;;;9.07;100.00;99432.65;106356;1285;60881;-74
2022/10/30 03:11:10;;;;;;;49.40;44.20;;;;;;;9.06;100.00;99430.57;106328;1277;64000;-75
2022/10/30 03:13:39;;;;;;;44.30;39.50;;;;;;;9.04;100.00;99432.95;106332;1285;58980;-74
2022/10/30 03:16:09;;;;;;;44.80;39.90;;;;;;;9.02;100.00;99433.80;106349;1284;59238;-74
2022/10/30 03:18:36;;;;;;;42.20;37.70;;;;;;;8.97;100.00;99433.51;106342;1278;66083;-74
2022/10/30 03:21:05;;;;;;;43.20;38.50;;;;;;;8.92;100.00;99436.78;106060;1287;60803;-74
2022/10/30 03:23:33;;;;;;;43.30;37.70;;;;;;;8.88;100.00;99444.27;106336;1285;64856;-74
2022/10/30 03:26:00;;;;;;;41.30;35.60;;;;;;;8.85;100.00;99439.81;106339;1278;58904;-75
2022/10/30 03:28:29;;;;;;;42.90;36.10;;;;;;;8.82;100.00;99439.29;106334;1286;58706;-75
2022/10/30 03:31:01;;;;;;;41.00;36.60;;;;;;;8.78;100.00;99438.05;106261;1284;65419;-75
2022/10/30 03:33:28;;;;;;;41.00;36.40;;;;;;;8.76;100.00;99438.52;106346;1278;61043;-74
2022/10/30 03:35:54;;;;;;;42.70;37.00;;;;;;;8.74;100.00;99437.38;106334;1285;65020;-75
2022/10/30 03:38:21;;;;;;;38.80;34.50;;;;;;;8.73;100.00;99439.77;106333;1272;58927;-75
2022/10/30 03:40:48;;;;;;;39.70;35.50;;;;;;;8.69;100.00;99447.02;106347;1286;58803;-74
2022/10/30 03:43:14;;;;;;;37.20;33.30;;;;;;;8.66;100.00;99456.02;106339;1285;67181;-76
2022/10/30 03:45:46;;;;;;;39.00;34.00;;;;;;;8.64;100.00;99455.08;106370;1285;60204;-75
2022/10/30 03:48:13;;;;;;;35.80;31.80;;;;;;;8.62;100.00;99463.19;106332;1278;65131;-75
2022/10/30 03:50:40;;;;;;;37.60;31.50;;;;;;;8.57;100.00;99464.48;106330;1291;59262;-75
2022/10/30 03:53:06;;;;;;;36.00;31.40;;;;;;;8.54;100.00;99458.78;106123;1288;59030;-74
2022/10/30 03:55:33;;;;;;;36.60;32.50;;;;;;;8.52;100.00;99459.92;106335;1285;67769;-75
2022/10/30 03:58:00;;;;;;;39.00;34.10;;;;;;;8.51;100.00;99462.48;106351;1284;60250;-75
2022/10/30 04:00:27;;;;;;;37.60;33.00;;;;;;;8.50;100.00;99468.38;106358;1284;64816;-75
2022/10/30 04:02:53;;;;;;;35.00;31.40;;;;;;;8.49;100.00;99465.77;106321;1292;58954;-75
2022/10/30 04:05:22;;;;;;;31.40;28.40;;;;;;;8.48;100.00;99457.70;106346;1278;59395;-75
2022/10/30 04:07:54;;;;;;;32.40;29.10;;;;;;;8.45;100.00;99457.33;106103;1288;74664;-74
2022/10/30 04:10:23;;;;;;;28.60;25.70;;;;;;;8.41;100.00;99443.00;106337;1286;60975;-75
2022/10/30 04:12:51;;;;;;;;;;;;;;;8.36;100.00;99438.42;106327;1285;72942;-75
2022/10/30 04:15:18;;;;;;;29.20;26.00;;;;;;;8.30;100.00;99435.17;106327;1277;58883;-75
2022/10/30 04:17:49;;;;;;;28.70;25.80;;;;;;;8.26;100.00;99434.70;106070;1282;59037;-75
2022/10/30 04:20:17;;;;;;;31.60;28.20;;;;;;;8.22;100.00;99434.89;106364;1285;66745;-75
2022/10/30 04:22:45;;;;;;;30.30;27.20;;;;;;;8.20;100.00;99434.81;106177;1285;237247;-75
2022/10/30 04:25:13;;;;;;;32.60;28.70;;;;;;;8.18;100.00;99431.55;106082;1285;63791;-74
2022/10/30 04:27:44;;;;;;;33.30;29.40;;;;;;;8.16;100.00;99428.45;106309;1284;58998;-74
2022/10/30 04:30:11;;;;;;;38.30;34.00;;;;;;;8.14;100.00;99425.34;106362;1285;58928;-76
2022/10/30 04:32:49;;;;;;;50.30;44.70;;;;;;;8.13;100.00;99426.81;106324;1280;66134;-76
2022/10/30 04:35:17;;;;;;;48.50;43.40;;;;;;;8.14;100.00;99431.56;106127;1289;61051;-75
2022/10/30 04:37:55;;;;;;;43.80;39.30;;;;;;;8.16;100.00;99430.58;106217;1286;63805;-75
2022/10/30 04:40:23;;;;;;;62.80;56.10;;;;;;;8.14;100.00;99425.34;106327;1284;58909;-75
2022/10/30 04:42:50;;;;;;;60.50;53.20;;;;;;;8.15;100.00;99429.90;106343;1278;59038;-75
2022/10/30 04:45:17;;;;;;;57.30;51.20;;;;;;;8.17;100.00;99431.40;106337;1285;66035;-75
2022/10/30 04:47:44;;;;;;;55.20;49.20;;;;;;;8.18;100.00;99431.52;106098;1282;59972;-75
2022/10/30 04:50:12;;;;;;;56.00;49.80;;;;;;;8.19;100.00;99435.93;106347;1284;63815;-75
2022/10/30 04:52:39;;;;;;;47.40;41.50;;;;;;;8.19;100.00;99440.67;106345;1285;58870;-75
2022/10/30 04:55:08;;;;;;;51.40;42.50;;;;;;;8.21;100.00;99445.89;106299;1278;58873;-75
2022/10/30 04:57:35;;;;;;;53.50;47.40;;;;;;;8.24;100.00;99447.02;106355;1285;66010;-75
2022/10/30 05:00:07;;;;;;;53.80;46.40;;;;;;;8.26;100.00;99446.91;106156;1288;61020;-75
2022/10/30 05:02:35;;;;;;;51.20;44.00;;;;;;;8.26;100.00;99446.88;106041;1285;65035;-75
2022/10/30 05:05:03;;;;;;;48.30;40.80;;;;;;;8.25;100.00;99444.64;106026;1291;58964;-75
2022/10/30 05:07:30;;;;;;;42.70;37.60;;;;;;;8.22;100.00;99445.34;106029;1283;58971;-75
2022/10/30 05:09:57;;;;;;;40.20;35.40;;;;;;;8.19;100.00;99443.91;106102;1288;66971;-75
2022/10/30 05:12:25;;;;;;;40.50;36.20;;;;;;;8.15;100.00;99447.60;106314;1285;68567;-75
2022/10/30 05:14:51;;;;;;;45.30;39.30;;;;;;;8.13;100.00;99451.23;106276;1279;63821;-75
2022/10/30 05:17:18;;;;;;;41.90;35.20;;;;;;;8.11;100.00;99455.05;106085;1288;59340;-75
2022/10/30 05:19:45;;;;;;;39.80;35.60;;;;;;;8.08;100.00;99454.31;106309;1285;58847;-75
2022/10/30 05:22:11;;;;;;;39.10;35.00;;;;;;;8.05;100.00;99450.41;106300;1285;67132;-76
2022/10/30 05:24:38;;;;;;;37.80;33.90;;;;;;;8.00;100.00;99447.64;106316;1278;61101;-76
2022/10/30 05:27:05;;;;;;;38.40;34.20;;;;;;;7.97;100.00;99450.45;106296;1285;64786;-75
2022/10/30 05:29:32;;;;;;;39.30;35.10;;;;;;;7.95;100.00;99448.06;106040;1291;58995;-76
2022/10/30 05:31:58;;;;;;;41.80;36.20;;;;;;;7.95;100.00;99449.86;106323;1285;58896;-76
2022/10/30 05:34:25;;;;;;;40.30;36.10;;;;;;;7.96;100.00;99449.95;106299;1285;67022;-76
2022/10/30 05:36:51;;;;;;;40.20;35.60;;;;;;;7.99;100.00;99452.13;106312;1278;61205;-76
2022/10/30 05:39:18;;;;;;;42.90;34.20;;;;;;;8.01;100.00;99461.06;106299;1284;64005;-76
2022/10/30 05:41:44;;;;;;;37.30;33.30;;;;;;;8.03;100.00;99461.31;106299;1285;58901;-75
2022/10/30 05:44:11;;;;;;;37.60;33.60;;;;;;;8.03;100.00;99460.62;106302;1277;58962;-74
2022/10/30 05:46:37;;;;;;;35.80;32.10;;;;;;;8.02;100.00;99459.58;106066;1288;73750;-75
2022/10/30 05:49:04;;;;;;;35.20;31.50;;;;;;;8.02;100.00;99455.31;106308;1285;60974;-75
2022/10/30 05:51:31;;;;;;;34.40;30.90;;;;;;;8.02;100.00;99450.91;106297;1285;63968;-74
2022/10/30 05:53:57;;;;;;;33.90;30.20;;;;;;;8.02;100.00;99450.20;106310;1291;58884;-74
2022/10/30 05:56:24;;;;;;;33.80;30.40;;;;;;;8.02;100.00;99448.98;106294;1294;58742;-74
2022/10/30 05:58:51;;;;;;;34.50;30.90;;;;;;;8.01;100.00;99447.23;106322;1278;66019;-75
2022/10/30 06:01:17;;;;;;;41.20;36.10;;;;;;;8.04;100.00;99448.36;106305;1287;60784;-75
2022/10/30 06:03:44;;;;;;;105.90;42.00;;;;;;;8.07;100.00;99445.52;106299;1279;63757;-74
2022/10/30 06:06:11;;;;;;;54.50;42.20;;;;;;;8.14;100.00;99446.97;106304;1286;58848;-73
2022/10/30 06:08:38;;;;;;;63.80;43.40;;;;;;;8.23;100.00;99447.23;106312;1278;59368;-74
2022/10/30 06:11:04;;;;;;;57.90;44.70;;;;;;;8.32;100.00;99445.18;106354;1285;67209;-74
2022/10/30 06:13:31;;;;;;;45.00;40.10;;;;;;;8.41;100.00;99448.84;106305;1278;60045;-75
2022/10/30 06:15:58;;;;;;;43.20;37.50;;;;;;;8.47;100.00;99447.42;106346;1278;64048;-74
2022/10/30 06:18:25;;;;;;;44.30;39.10;;;;;;;8.53;100.00;99451.90;106099;1285;58919;-75
2022/10/30 06:20:54;;;;;;;43.30;38.60;;;;;;;8.59;100.00;99454.09;106336;1276;58934;-75
2022/10/30 06:23:21;;;;;;;40.10;35.40;;;;;;;8.65;100.00;99451.31;106333;1284;66793;-75
2022/10/30 06:25:47;;;;;;;37.10;33.30;;;;;;;8.71;100.00;99451.15;106332;1286;61178;-75
2022/10/30 06:28:14;;;;;;;36.90;32.90;;;;;;;8.79;100.00;99447.40;106307;1285;73067;-75
2022/10/30 06:30:41;;;;;;;36.40;32.50;;;;;;;8.85;100.00;99446.36;106332;1286;58930;-73
2022/10/30 06:33:09;;;;;;;39.50;35.00;;;;;;;8.93;100.00;99444.71;106336;1285;58723;-74
2022/10/30 06:35:35;;;;;;;39.40;35.20;;;;;;;9.03;100.00;99444.20;106298;1284;65700;-74
2022/10/30 06:38:03;;;;;;;41.40;35.70;;;;;;;9.13;100.00;99445.60;106365;1284;61018;-74
2022/10/30 06:40:30;;;;;;;43.40;38.20;;;;;;;9.24;100.00;99445.16;106331;1285;64859;-75
2022/10/30 06:42:56;;;;;;;46.00;39.20;;;;;;;9.35;100.00;99446.70;106353;1278;59011;-74
2022/10/30 06:45:23;;;;;;;42.00;37.50;;;;;;;9.46;100.00;99448.75;106334;1285;58827;-75
2022/10/30 06:47:51;;;;;;;37.60;33.50;;;;;;;9.57;100.00;99452.08;106351;1285;66760;-75
2022/10/30 06:50:19;;;;;;;40.30;35.00;;;;;;;9.67;100.00;99451.68;106347;1284;59772;-75
2022/10/30 06:52:47;;;;;;;40.30;34.30;;;;;;;9.77;100.00;99454.17;106336;1278;65264;-75
2022/10/30 06:55:14;;;;;;;38.50;34.30;;;;;;;9.86;100.00;99453.61;106341;1285;58888;-75
2022/10/30 06:57:41;;;;;;;41.90;37.30;;;;;;;9.97;100.00;99457.60;106246;1288;58870;-75
2022/10/30 07:00:08;;;;;;;47.50;39.10;;;;;;;10.08;100.00;99457.33;106340;1278;67123;-75
2022/10/30 07:02:35;;;;;;;45.50;40.10;;;;;;;10.19;100.00;99455.98;106131;1289;60956;-74
2022/10/30 07:05:02;;;;;;;41.80;37.30;;;;;;;10.31;100.00;99457.64;106334;1286;63748;-75
2022/10/30 07:07:29;;;;;;;41.60;37.00;;;;;;;10.42;100.00;99453.44;106305;1286;58976;-74
2022/10/30 07:09:56;;;;;;;45.50;40.50;;;;;;;10.54;100.00;99449.56;106323;1284;58974;-74
2022/10/30 07:12:23;;;;;;;46.30;38.10;;;;;;;10.64;100.00;99446.11;106304;1285;67017;-74
2022/10/30 07:14:49;;;;;;;38.30;34.20;;;;;;;10.75;100.00;99443.84;106058;1284;59733;-75
2022/10/30 07:17:16;;;;;;;37.00;32.80;;;;;;;10.86;100.00;99446.54;106317;1285;64054;-75
2022/10/30 07:19:43;;;;;;;34.20;30.60;;;;;;;10.97;100.00;99450.14;106023;1291;59004;-75
2022/10/30 07:22:10;;;;;;;35.20;28.90;;;;;;;11.10;100.00;99449.54;106319;1286;58803;-75
2022/10/30 07:24:36;;;;;;;27.80;24.80;;;;;;;11.23;100.00;99448.70;106271;1285;67064;-75
2022/10/30 07:27:03;;;;;;;28.10;25.10;;;;;;;11.38;100.00;99451.55;106306;1278;59967;-75
2022/10/30 07:29:29;;;;;;;26.80;23.80;;;;;;;11.51;100.00;99454.96;106047;1285;65088;-76
2022/10/30 07:31:56;;;;;;;25.50;20.80;;;;;;;11.64;100.00;99457.69;106307;1284;59089;-74
2022/10/30 07:34:23;;;;;;;24.20;21.50;;;;;;;11.78;100.00;99456.99;106296;1286;59281;-75
2022/10/30 07:36:49;;;;;;;22.20;19.90;;;;;;;11.92;100.00;99460.36;106329;1286;67083;-75
2022/10/30 07:39:16;;;;;;;22.40;19.60;;;;;;;12.07;100.00;99457.06;106328;1286;61007;-76
2022/10/30 07:41:42;;;;;;;24.50;19.30;;;;;;;12.22;100.00;99454.69;106338;1277;62717;-74
2022/10/30 07:44:09;;;;;;;21.50;18.70;;;;;;;12.35;100.00;99451.31;106333;1285;58842;-74
2022/10/30 07:46:36;;;;;;;21.40;17.10;;;;;;;12.48;100.00;99450.60;106023;1292;58873;-73
2022/10/30 07:49:02;;;;;;;20.00;17.70;;;;;;;12.61;100.00;99454.17;106363;1285;67378;-74
2022/10/30 07:51:29;;;;;;;20.00;17.00;;;;;;;12.73;100.00;99456.02;106100;1272;60133;-74
2022/10/30 07:53:55;;;;;;;17.80;16.00;;;;;;;12.86;100.00;99453.00;106352;1285;64430;-75
2022/10/30 07:56:22;;;;;;;20.50;16.50;;;;;;;12.99;100.00;99447.31;106326;1286;59260;-75
2022/10/30 07:58:48;;;;;;;16.30;14.70;;;;;;;13.09;100.00;99437.99;106355;1285;58935;-75
2022/10/30 08:01:15;;;;;;;16.20;14.40;;;;;;;13.20;100.00;99436.39;106315;1286;67019;-76
2022/10/30 08:03:42;;;;;;;15.70;14.10;;;;;;;13.30;100.00;99437.45;106069;1289;60773;-75
2022/10/30 08:06:08;;;;;;;20.30;18.10;;;;;;;13.41;100.00;99437.58;106321;1285;65049;-74
2022/10/30 08:08:35;;;;;;;16.90;15.10;;;;;;;13.51;100.00;99432.39;106310;1292;58952;-74
2022/10/30 08:11:02;;;;;;;17.70;13.20;;;;;;;13.61;100.00;99429.73;106350;1285;58810;-75
2022/10/30 08:13:29;;;;;;;18.70;13.30;;;;;;;13.71;100.00;99423.81;106322;1280;67218;-75
2022/10/30 08:15:55;;;;;;;13.50;11.60;;;;;;;13.80;100.00;99426.73;106358;1285;58921;-75
2022/10/30 08:18:22;;;;;;;19.50;13.90;;;;;;;13.91;100.00;99422.91;106299;1285;64938;-75
2022/10/30 08:20:49;;;;;;;19.30;14.70;;;;;;;13.99;100.00;99424.56;106320;1286;58957;-75
2022/10/30 08:23:18;;;;;;;15.50;12.90;;;;;;;14.10;100.00;99427.20;106317;1285;58900;-75
2022/10/30 08:25:45;;;;;;;16.10;11.90;;;;;;;14.19;100.00;99430.77;106310;1286;65860;-75
2022/10/30 08:28:13;;;;;;;14.00;11.60;;;;;;;14.28;100.00;99428.36;106316;1277;59958;-74
2022/10/30 08:30:40;;;;;;;14.60;11.70;;;;;;;14.38;100.00;99430.48;106049;1282;65078;-75
2022/10/30 08:33:14;;;;;;;14.90;10.90;;;;;;;14.46;100.00;99435.05;106309;1286;58883;-74
2022/10/30 08:35:51;;;;;;;16.30;11.20;;;;;;;14.53;100.00;99432.96;106350;1283;58825;-74
2022/10/30 08:38:18;;;;;;;13.10;10.10;;;;;;;14.60;100.00;99431.67;106291;1285;75342;-75
2022/10/30 08:40:45;;;;;;;12.40;9.90;;;;;;;14.68;100.00;99428.35;106318;1282;60024;-74
2022/10/30 08:43:11;;;;;;;12.60;9.70;;;;;;;14.78;100.00;99421.01;106095;1285;62731;-75
2022/10/30 08:45:38;;;;;;;13.60;10.50;;;;;;;14.86;100.00;99417.48;106339;1286;59260;-74
2022/10/30 08:48:08;;;;;;;12.80;9.80;;;;;;;14.93;100.00;99415.52;106328;1286;58854;-73
2022/10/30 08:50:35;;;;;;;14.10;10.60;;;;;;;15.02;100.00;99413.42;106300;1278;67014;-75
2022/10/30 08:53:07;;;;;;;13.50;10.10;;;;;;;15.11;100.00;99413.23;106305;1282;61164;-75
2022/10/30 08:55:34;;;;;;;11.60;10.40;;;;;;;15.21;100.00;99410.33;106272;1285;71711;-75
2022/10/30 08:58:02;;;;;;;14.10;10.80;;;;;;;15.29;100.00;99408.24;106284;1286;58904;-76
2022/10/30 09:00:29;;;;;;;11.70;9.90;;;;;;;15.40;100.00;99411.85;106305;1285;58867;-77
2022/10/30 09:02:57;;;;;;;12.50;9.90;;;;;;;15.50;100.00;99411.04;106294;1285;66865;-75
2022/10/30 09:05:24;;;;;;;13.10;9.30;;;;;;;15.57;100.00;99407.94;106126;1289;60956;-75
2022/10/30 09:07:56;;;;;;;13.10;10.20;;;;;;;15.68;100.00;99400.81;106266;1286;65070;-77
2022/10/30 09:10:24;;;;;;;11.80;10.10;;;;;;;15.81;100.00;99399.41;106019;1289;58931;-75
2022/10/30 09:12:55;;;;;;;14.30;9.60;;;;;;;15.94;100.00;99396.70;106043;1287;58931;-74
2022/10/30 09:15:22;;;;;;;11.40;9.60;;;;;;;16.07;100.00;99391.16;106011;1292;67288;-76
2022/10/30 09:17:55;;;;;;;11.00;8.60;;;;;;;16.16;100.00;99389.45;106344;1286;61022;-75
2022/10/30 09:20:21;;;;;;;13.00;9.80;;;;;;;16.26;100.00;99385.44;106329;1285;64992;-76
2022/10/30 09:22:48;;;;;;;11.60;9.00;;;;;;;16.38;100.00;99383.35;106313;1286;59093;-75
2022/10/30 09:25:15;;;;;;;11.60;8.60;;;;;;;16.47;100.00;99383.84;106282;1285;58818;-76
2022/10/30 09:27:41;;;;;;;11.80;8.10;;;;;;;16.55;100.00;99376.54;106336;1284;65731;-75
2022/10/30 09:30:08;;;;;;;10.20;8.40;;;;;;;16.60;100.00;99377.68;106309;1285;59963;-76
2022/10/30 09:32:35;;;;;;;11.90;8.20;;;;;;;16.62;100.00;99376.45;106015;1286;65329;-75
2022/10/30 09:35:02;;;;;;;10.00;7.50;;;;;;;16.64;100.00;99379.16;106312;1285;58964;-76
2022/10/30 09:37:33;;;;;;;10.30;8.60;;;;;;;16.69;100.00;99380.73;106319;1286;58910;-75
2022/10/30 09:39:59;;;;;;;10.20;8.00;;;;;;;16.75;100.00;99378.58;106337;1284;65997;-75
2022/10/30 09:42:41;;;;;;;10.90;8.00;;;;;;;16.82;100.00;99377.76;106327;1284;59855;-75
2022/10/30 09:45:23;;;;;;;10.20;7.80;;;;;;;16.88;100.00;99376.58;106331;1279;65779;-74
2022/10/30 09:48:24;;;;;;;10.50;7.20;;;;;;;16.94;100.00;99376.74;106330;1292;59288;-75
2022/10/30 09:51:09;;;;;;;9.00;7.00;;;;;;;17.02;100.00;99374.28;106337;1286;58834;-75
2022/10/30 09:53:58;;;;;;;10.20;7.60;;;;;;;17.09;100.00;99373.08;106307;1284;65971;-76
2022/10/30 09:56:38;;;;;;;11.80;8.00;;;;;;;17.16;100.00;99371.27;106096;1289;59165;-76
2022/10/30 09:59:15;;;;;;;8.90;7.20;;;;;;;17.18;100.00;99373.39;106336;1284;63793;-76
2022/10/30 10:02:00;;;;;;;10.40;7.20;;;;;;;17.20;100.00;99376.30;106330;1285;58878;-75
2022/10/30 10:04:48;;;;;;;11.00;7.50;;;;;;;17.29;100.00;99377.10;106342;1275;58830;-75
2022/10/30 10:07:25;;;;;;;11.10;7.20;;;;;;;17.41;100.00;99377.99;106332;1278;74303;-76
2022/10/30 10:10:00;;;;;;;11.60;7.60;;;;;;;17.49;100.00;99380.69;106220;1284;60089;-74
2022/10/30 10:12:33;;;;;;;11.30;7.40;;;;;;;17.56;100.00;99380.42;106350;1286;64033;-75
2022/10/30 10:15:08;;;;;;;12.60;7.00;;;;;;;17.67;100.00;99375.34;106352;1291;58831;-76
2022/10/30 10:17:40;;;;;;;9.30;6.80;;;;;;;17.79;100.00;99375.30;106321;1283;59350;-76
2022/10/30 10:20:16;;;;;;;9.80;7.70;;;;;;;17.89;100.00;99372.59;106051;1287;66876;-76
2022/10/30 10:22:48;;;;;;;10.00;7.80;;;;;;;18.01;100.00;99367.45;106276;1284;60879;-76
2022/10/30 10:25:18;;;;;;;9.90;8.00;;;;;;;18.10;100.00;99369.45;106287;1275;65132;-75
2022/10/30 10:27:51;;;;;;;14.90;9.20;;;;;;;18.22;100.00;99370.82;106320;1285;58922;-76
2022/10/30 10:30:20;;;;;;;11.00;6.90;;;;;;;18.34;100.00;99374.27;106327;1275;60292;-76
2022/10/30 10:32:50;;;;;;;8.90;7.40;;;;;;;18.41;100.00;99373.20;106336;1286;66053;-76
2022/10/30 10:35:41;;;;;;;8.70;7.40;;;;;;;18.50;100.00;99371.42;106298;1282;60113;-76
2022/10/30 10:38:11;;;;;;;10.30;7.10;;;;;;;18.60;100.00;99369.45;106340;1286;65024;-76
2022/10/30 10:40:43;;;;;;;7.30;6.60;;;;;;;18.68;100.00;99369.61;106348;1286;59112;-77
2022/10/30 10:43:38;;;;;;;9.60;8.20;;;;;;;18.75;100.00;99362.83;106358;1285;58850;-76
2022/10/30 10:46:30;;;;;;;10.60;7.80;;;;;;;18.84;100.00;99362.19;106299;1285;66019;-76
2022/10/30 10:49:30;;;;;;;11.80;7.60;;;;;;;18.96;100.00;99364.27;105662;1298;61128;-76
2022/10/30 10:52:22;;;;;;;13.00;6.90;;;;;;;19.10;100.00;99365.42;105641;1294;72068;-75
2022/10/30 10:54:59;;;;;;;8.50;7.40;;;;;;;19.22;100.00;99357.59;105216;1290;58881;-76
2022/10/30 10:57:32;;;;;;;11.10;7.10;;;;;;;19.34;100.00;99354.98;105133;1289;59112;-75
2022/10/30 11:00:05;;;;;;;11.50;7.30;;;;;;;19.42;100.00;99356.95;105167;1290;66017;-75
2022/10/30 11:02:39;;;;;;;11.20;7.30;;;;;;;19.50;100.00;99359.75;105212;1298;60086;-76
2022/10/30 11:05:18;;;;;;;13.70;7.80;;;;;;;19.59;100.00;99355.65;105178;1302;63814;-74
2022/10/30 11:07:47;;;;;;;9.00;6.90;;;;;;;19.71;100.00;99347.38;105205;1305;58907;-74
2022/10/30 11:10:22;;;;;;;9.40;6.20;;;;;;;19.84;100.00;99344.55;105214;1300;59055;-76
2022/10/30 11:12:49;;;;;;;14.20;8.10;;;;;;;19.98;100.00;99340.59;105099;1302;66083;-74
2022/10/30 11:15:37;;;;;;;7.90;6.30;;;;;;;20.12;100.00;99340.11;105213;1300;60177;-76
2022/10/30 11:18:08;;;;;;;17.50;6.70;;;;;;;20.23;100.00;99338.08;105164;1300;64324;-77
2022/10/30 11:20:53;;;;;;;9.90;6.40;;;;;;;20.32;100.00;99336.09;105214;1305;58995;-76